createdAt,value
2023-05-25T00:00:00.237Z,17.11
2023-05-25T00:03:00.340Z,17.10
2023-05-25T00:06:01.143Z,17.08
2023-05-25T00:09:01.160Z,17.09
2023-05-25T00:12:01.158Z,17.10
2023-05-25T00:15:02.163Z,17.09
2023-05-25T00:18:02.216Z,17.09
2023-05-25T00:21:02.152Z,17.09
2023-05-25T00:24:03.175Z,17.08
2023-05-25T00:27:03.189Z,17.06
2023-05-25T00:30:03.224Z,17.01
2023-05-25T00:33:04.225Z,16.97
2023-05-25T00:36:04.226Z,16.96
2023-05-25T00:39:04.200Z,17.01
2023-05-25T00:42:05.227Z,17.56
2023-05-25T00:45:06.223Z,18.06
2023-05-25T00:48:06.277Z,18.19
2023-05-25T00:51:08.234Z,18.12
2023-05-25T00:54:08.443Z,17.94
2023-05-25T00:57:16.248Z,17.71
2023-05-25T01:00:17.256Z,17.47
2023-05-25T01:03:27.441Z,17.32
2023-05-25T01:06:33.264Z,17.16
2023-05-25T01:09:35.265Z,17.01
2023-05-25T01:12:36.268Z,16.92
2023-05-25T01:15:37.280Z,16.85
2023-05-25T01:18:37.287Z,17.20
2023-05-25T01:21:56.324Z,17.58
2023-05-25T01:24:59.293Z,17.66
2023-05-25T01:28:16.339Z,17.54
2023-05-25T01:31:16.287Z,17.30
2023-05-25T01:34:17.312Z,17.10
2023-05-25T01:37:19.305Z,16.90
2023-05-25T01:40:20.338Z,16.69
2023-05-25T01:43:20.336Z,16.54
2023-05-25T01:46:32.387Z,16.46
2023-05-25T01:49:40.339Z,16.37
2023-05-25T01:52:46.378Z,16.30
2023-05-25T01:55:52.349Z,16.24
2023-05-25T01:58:55.347Z,16.20
2023-05-25T02:01:55.549Z,16.16
2023-05-25T02:04:55.356Z,16.15
2023-05-25T02:07:56.373Z,16.28
2023-05-25T02:10:51.378Z,16.39
2023-05-25T02:13:51.393Z,16.49
2023-05-25T02:16:53.357Z,16.64
2023-05-25T02:19:59.596Z,17.33
2023-05-25T02:23:00.392Z,18.05
2023-05-25T02:26:00.425Z,18.58
2023-05-25T02:29:00.435Z,18.93
2023-05-25T02:32:00.425Z,18.99
2023-05-25T02:35:00.426Z,18.92
2023-05-25T02:38:00.446Z,19.14
2023-05-25T02:41:00.478Z,19.96
2023-05-25T02:44:00.445Z,20.98
2023-05-25T02:47:00.523Z,21.62
2023-05-25T02:50:00.473Z,22.00
2023-05-25T02:53:04.473Z,22.35
2023-05-25T02:56:04.461Z,22.65
2023-05-25T02:59:04.480Z,22.90
2023-05-25T03:02:04.473Z,23.12
2023-05-25T03:05:05.488Z,23.50
2023-05-25T03:08:05.513Z,23.93
2023-05-25T03:11:05.761Z,24.45
2023-05-25T03:14:05.533Z,24.84
2023-05-25T03:17:05.557Z,25.19
2023-05-25T03:20:05.553Z,25.63
2023-05-25T03:23:08.521Z,26.27
2023-05-25T03:26:08.515Z,26.80
2023-05-25T03:29:08.537Z,27.27
2023-05-25T03:32:08.602Z,27.40
2023-05-25T03:35:08.589Z,27.55
2023-05-25T03:38:08.541Z,27.95
2023-05-25T03:41:08.546Z,28.23
2023-05-25T03:44:09.536Z,28.53
2023-05-25T03:47:09.539Z,29.17
2023-05-25T03:50:09.547Z,29.73
2023-05-25T03:53:09.581Z,30.44
2023-05-25T03:56:09.558Z,31.05
2023-05-25T03:59:09.715Z,31.52
2023-05-25T04:02:09.628Z,31.91
2023-05-25T04:05:10.588Z,32.29
2023-05-25T04:08:10.576Z,32.68
2023-05-25T04:11:12.586Z,33.11
2023-05-25T04:14:13.605Z,33.51
2023-05-25T04:17:14.604Z,34.04
2023-05-25T04:20:15.640Z,34.68
2023-05-25T04:23:15.629Z,35.16
2023-05-25T04:26:16.613Z,35.62
2023-05-25T04:29:20.667Z,36.05
2023-05-25T04:32:46.754Z,36.77
2023-05-25T04:36:09.687Z,37.32
2023-05-25T04:39:09.668Z,37.97
2023-05-25T04:42:13.709Z,38.39
2023-05-25T04:45:13.678Z,38.94
2023-05-25T04:48:13.682Z,39.43
2023-05-25T04:51:14.715Z,39.49
2023-05-25T04:54:14.690Z,39.25
2023-05-25T04:57:15.702Z,39.03
2023-05-25T05:00:17.739Z,38.98
2023-05-25T05:03:19.905Z,39.09
2023-05-25T05:06:19.697Z,39.40
2023-05-25T05:09:19.759Z,39.86
2023-05-25T05:12:22.745Z,40.27
2023-05-25T05:15:25.763Z,40.52
2023-05-25T05:18:26.739Z,40.84
2023-05-25T05:21:26.769Z,41.16
2023-05-25T05:24:27.752Z,41.70
2023-05-25T05:27:29.898Z,42.06
2023-05-25T05:30:36.784Z,42.24
2023-05-25T05:33:37.812Z,42.58
2023-05-25T05:36:56.038Z,42.63
2023-05-25T05:40:00.059Z,42.37
2023-05-25T05:43:01.822Z,42.25
2023-05-25T05:46:01.859Z,42.46
2023-05-25T05:49:02.811Z,42.52
2023-05-25T05:52:02.807Z,42.86
2023-05-25T05:55:02.836Z,43.19
2023-05-25T05:58:04.847Z,43.09
2023-05-25T06:01:05.860Z,42.71
2023-05-25T06:04:05.858Z,42.84
2023-05-25T06:07:05.892Z,42.93
2023-05-25T06:10:06.865Z,43.03
2023-05-25T06:13:09.506Z,43.17
2023-05-25T06:16:10.951Z,43.37
2023-05-25T06:19:10.890Z,43.44
2023-05-25T06:22:10.908Z,43.57
2023-05-25T06:25:10.916Z,43.84
2023-05-25T06:28:10.912Z,44.15
2023-05-25T06:31:11.073Z,44.41
2023-05-25T06:34:14.972Z,44.55
2023-05-25T06:37:14.957Z,44.56
2023-05-25T06:40:17.985Z,44.66
2023-05-25T06:43:17.947Z,44.46
2023-05-25T06:46:34.974Z,44.49
2023-05-25T06:49:34.952Z,44.48
2023-05-25T06:52:34.955Z,44.46
2023-05-25T06:55:35.127Z,44.14
2023-05-25T06:59:10.014Z,43.29
2023-05-25T07:02:09.959Z,42.09
2023-05-25T07:05:11.975Z,40.70
2023-05-25T07:08:12.008Z,38.67
2023-05-25T07:11:12.004Z,36.94
2023-05-25T07:14:11.986Z,35.15
2023-05-25T07:17:12.163Z,34.00
2023-05-25T07:20:12.059Z,33.12
2023-05-25T07:23:12.025Z,32.19
2023-05-25T07:26:12.034Z,31.18
2023-05-25T07:29:12.036Z,30.40
2023-05-25T07:32:12.045Z,29.95
2023-05-25T07:35:12.046Z,29.61
2023-05-25T07:38:16.066Z,29.15
2023-05-25T07:41:16.055Z,28.71
2023-05-25T07:44:17.071Z,28.36
2023-05-25T07:47:17.083Z,27.95
2023-05-25T07:50:17.073Z,27.69
2023-05-25T07:53:17.084Z,27.44
2023-05-25T07:56:17.059Z,27.22
2023-05-25T07:59:17.074Z,27.08
2023-05-25T08:02:17.146Z,26.94
2023-05-25T08:05:17.203Z,26.79
2023-05-25T08:08:17.105Z,26.62
2023-05-25T08:11:18.137Z,26.45
2023-05-25T08:14:18.131Z,26.33
2023-05-25T08:17:18.207Z,26.22
2023-05-25T08:20:20.236Z,26.11
2023-05-25T08:23:20.147Z,26.04
2023-05-25T08:26:37.921Z,26.07
2023-05-25T08:29:40.126Z,26.06
2023-05-25T08:32:40.213Z,25.95
2023-05-25T08:35:40.130Z,25.83
2023-05-25T08:38:40.198Z,25.78
2023-05-25T08:41:40.268Z,25.68
2023-05-25T08:44:41.173Z,25.61
2023-05-25T08:47:44.185Z,25.67
2023-05-25T08:50:46.226Z,25.71
2023-05-25T08:53:49.196Z,25.72
2023-05-25T08:57:04.203Z,25.67
2023-05-25T09:00:19.269Z,25.62
2023-05-25T09:03:31.473Z,25.58
2023-05-25T09:06:33.211Z,25.59
2023-05-25T09:09:35.271Z,25.60
2023-05-25T09:12:38.216Z,25.67
2023-05-25T09:15:38.254Z,25.72
2023-05-25T09:18:38.234Z,25.73
2023-05-25T09:21:39.219Z,25.79
2023-05-25T09:24:39.244Z,25.82
2023-05-25T09:27:39.284Z,25.80
2023-05-25T09:30:42.460Z,25.82
2023-05-25T09:33:44.261Z,25.75
2023-05-25T09:36:47.429Z,25.74
2023-05-25T09:39:48.384Z,25.74
2023-05-25T09:42:49.288Z,25.68
2023-05-25T09:45:51.293Z,25.72
2023-05-25T09:48:54.301Z,25.66
2023-05-25T09:51:54.309Z,25.63
2023-05-25T09:55:02.407Z,25.57
2023-05-25T09:58:07.314Z,25.54
2023-05-25T10:01:07.384Z,25.56
2023-05-25T10:04:08.324Z,25.61
2023-05-25T10:07:10.318Z,25.71
2023-05-25T10:10:17.395Z,25.77
2023-05-25T10:13:22.649Z,25.79
2023-05-25T10:16:25.453Z,25.77
2023-05-25T10:19:32.415Z,25.77
2023-05-25T10:22:43.374Z,25.79
2023-05-25T10:25:52.391Z,25.77
2023-05-25T10:28:57.392Z,25.69
2023-05-25T10:31:58.386Z,25.64
2023-05-25T10:34:59.400Z,25.58
2023-05-25T10:38:00.411Z,25.60
2023-05-25T10:41:01.431Z,25.55
2023-05-25T10:44:03.385Z,25.60
2023-05-25T10:47:04.465Z,25.62
2023-05-25T10:50:12.438Z,25.66
2023-05-25T10:53:22.659Z,25.74
2023-05-25T10:56:22.427Z,25.92
2023-05-25T10:59:26.438Z,26.01
2023-05-25T11:02:31.468Z,26.03
2023-05-25T11:05:40.439Z,26.08
2023-05-25T11:09:05.461Z,26.13
2023-05-25T11:12:05.492Z,26.17
2023-05-25T11:18:50.491Z,26.44
2023-05-25T11:21:55.499Z,26.63
2023-05-25T11:24:56.511Z,26.77
2023-05-25T11:28:01.536Z,26.94
2023-05-25T11:31:01.670Z,27.10
2023-05-25T11:34:03.514Z,27.10
2023-05-25T11:37:12.207Z,27.10
2023-05-25T11:40:12.548Z,27.22
2023-05-25T11:43:14.505Z,27.25
2023-05-25T11:46:14.549Z,27.36
2023-05-25T11:49:14.535Z,27.46
2023-05-25T11:52:18.581Z,27.53
2023-05-25T11:55:27.565Z,27.66
2023-05-25T11:58:27.540Z,27.73
2023-05-25T12:01:27.550Z,27.74
2023-05-25T12:04:27.654Z,27.87
2023-05-25T12:07:27.568Z,28.00
2023-05-25T12:10:28.766Z,28.11
2023-05-25T12:13:28.590Z,27.86
2023-05-25T12:16:28.935Z,27.56
2023-05-25T12:19:29.596Z,27.21
2023-05-25T12:22:29.730Z,26.96
2023-05-25T12:25:46.584Z,26.87
2023-05-25T12:28:51.626Z,26.78
2023-05-25T12:31:51.658Z,26.83
2023-05-25T12:34:51.625Z,26.99
2023-05-25T12:37:52.652Z,26.97
2023-05-25T12:40:56.641Z,26.85
2023-05-25T12:43:56.668Z,26.79
2023-05-25T12:46:49.830Z,26.76
2023-05-25T12:49:49.690Z,26.70
2023-05-25T12:52:50.676Z,26.75
2023-05-25T12:55:50.655Z,26.98
2023-05-25T12:58:50.934Z,27.24
2023-05-25T13:01:54.942Z,27.52
2023-05-25T13:04:55.978Z,27.76
2023-05-25T13:07:55.697Z,27.90
2023-05-25T13:10:56.693Z,27.97
2023-05-25T13:13:56.698Z,27.85
2023-05-25T13:16:58.786Z,27.60
2023-05-25T13:19:58.755Z,27.39
2023-05-25T13:23:03.742Z,27.14
2023-05-25T13:26:03.738Z,26.80
2023-05-25T13:29:03.731Z,26.54
2023-05-25T13:32:03.769Z,26.22
2023-05-25T13:35:05.738Z,25.90
2023-05-25T13:38:05.806Z,25.76
2023-05-25T13:41:05.757Z,25.81
2023-05-25T13:44:05.773Z,25.96
2023-05-25T13:47:05.805Z,25.99
2023-05-25T13:50:05.778Z,25.88
2023-05-25T13:53:05.793Z,25.87
2023-05-25T13:56:06.802Z,25.78
2023-05-25T13:59:06.799Z,25.98
2023-05-25T14:02:06.870Z,26.25
2023-05-25T14:05:06.812Z,26.20
2023-05-25T14:08:08.790Z,26.04
2023-05-25T14:11:08.821Z,26.18
2023-05-25T14:14:13.748Z,26.23
2023-05-25T14:17:19.833Z,26.21
2023-05-25T14:20:26.856Z,26.17
2023-05-25T14:23:26.855Z,26.20
2023-05-25T14:26:27.863Z,26.12
2023-05-25T14:29:27.864Z,26.13
2023-05-25T14:32:27.895Z,26.03
2023-05-25T14:35:27.895Z,25.90
2023-05-25T14:38:27.865Z,25.72
2023-05-25T14:41:28.919Z,25.66
2023-05-25T14:44:28.891Z,25.39
2023-05-25T14:47:28.896Z,25.37
2023-05-25T14:50:30.466Z,25.34
2023-05-25T14:53:30.880Z,25.14
2023-05-25T14:56:33.961Z,25.14
2023-05-25T14:59:33.939Z,25.26
2023-05-25T15:02:35.032Z,25.18
2023-05-25T15:05:34.912Z,25.16
2023-05-25T15:08:35.932Z,25.26
2023-05-25T15:11:35.934Z,25.30
2023-05-25T15:14:35.952Z,25.29
2023-05-25T15:17:36.984Z,25.34
2023-05-25T15:20:37.056Z,25.39
2023-05-25T15:23:37.985Z,25.21
2023-05-25T15:26:37.985Z,24.95
2023-05-25T15:29:37.973Z,24.82
2023-05-25T15:32:38.091Z,24.67
2023-05-25T15:35:37.990Z,24.66
2023-05-25T15:38:38.998Z,24.55
2023-05-25T15:41:40.129Z,24.48
2023-05-25T15:44:41.034Z,24.40
2023-05-25T15:47:41.078Z,24.30
2023-05-25T15:50:41.022Z,24.34
2023-05-25T15:53:43.102Z,24.44
2023-05-25T15:56:43.035Z,24.50
2023-05-25T15:59:44.049Z,24.56
2023-05-25T16:02:45.072Z,24.64
2023-05-25T16:05:45.319Z,24.69
2023-05-25T16:08:46.055Z,24.75
2023-05-25T16:11:46.057Z,24.84
2023-05-25T16:14:47.070Z,24.94
2023-05-25T16:17:47.087Z,25.00
2023-05-25T16:20:47.264Z,25.10
2023-05-25T16:23:47.125Z,25.18
2023-05-25T16:26:47.111Z,25.28
2023-05-25T16:29:47.108Z,25.36
2023-05-25T16:32:47.201Z,25.35
2023-05-25T16:35:47.298Z,25.30
2023-05-25T16:38:48.128Z,25.28
2023-05-25T16:41:50.619Z,25.04
2023-05-25T16:44:51.146Z,24.98
2023-05-25T16:47:51.218Z,24.95
2023-05-25T16:50:51.120Z,24.95
2023-05-25T16:53:52.512Z,24.89
2023-05-25T16:56:54.138Z,24.80
2023-05-25T16:59:54.151Z,24.75
2023-05-25T17:02:56.297Z,24.70
2023-05-25T17:05:57.157Z,24.58
2023-05-25T17:08:57.168Z,24.43
2023-05-25T17:11:57.178Z,24.27
2023-05-25T17:14:57.187Z,24.12
2023-05-25T17:17:58.236Z,24.02
2023-05-25T17:20:58.228Z,23.89
2023-05-25T17:23:58.202Z,23.76
2023-05-25T17:26:58.212Z,23.63
2023-05-25T17:29:58.201Z,23.50
2023-05-25T17:32:58.267Z,23.35
2023-05-25T17:35:58.231Z,23.20
2023-05-25T17:38:58.270Z,23.07
2023-05-25T17:42:00.224Z,22.92
2023-05-25T17:45:01.266Z,22.78
2023-05-25T17:48:03.303Z,22.65
2023-05-25T17:51:03.261Z,22.47
2023-05-25T17:54:03.308Z,22.34
2023-05-25T17:57:03.287Z,22.20
2023-05-25T18:00:04.278Z,22.09
2023-05-25T18:03:07.375Z,21.98
2023-05-25T18:06:07.288Z,21.86
2023-05-25T18:09:07.274Z,21.75
2023-05-25T18:12:07.766Z,21.66
2023-05-25T18:15:08.332Z,21.56
2023-05-25T18:18:09.335Z,21.48
2023-05-25T18:21:09.326Z,21.39
2023-05-25T18:24:09.340Z,21.28
2023-05-25T18:27:09.319Z,21.20
2023-05-25T18:30:09.375Z,21.15
2023-05-25T18:33:09.382Z,21.11
2023-05-25T18:36:09.341Z,21.08
2023-05-25T18:39:09.351Z,21.05
2023-05-25T18:42:10.398Z,21.01
2023-05-25T18:45:10.401Z,20.96
2023-05-25T18:48:16.784Z,20.91
2023-05-25T18:51:25.671Z,20.86
2023-05-25T18:54:42.381Z,20.83
2023-05-25T18:57:42.469Z,20.80
2023-05-25T19:00:43.512Z,20.78
2023-05-25T19:03:43.583Z,20.75
2023-05-25T19:06:43.457Z,20.72
2023-05-25T19:09:43.442Z,20.68
2023-05-25T19:12:43.408Z,20.65
2023-05-25T19:15:43.711Z,20.60
2023-05-25T19:18:45.475Z,20.56
2023-05-25T19:21:45.470Z,20.53
2023-05-25T19:24:48.608Z,20.50
2023-05-25T19:27:50.491Z,20.49
2023-05-25T19:30:51.509Z,20.48
2023-05-25T19:33:51.437Z,20.47
2023-05-25T19:37:00.094Z,20.45
2023-05-25T19:40:10.473Z,20.45
2023-05-25T19:43:10.492Z,20.40
2023-05-25T19:46:10.518Z,20.33
2023-05-25T19:49:11.529Z,20.30
2023-05-25T19:52:11.589Z,20.29
2023-05-25T19:55:11.519Z,20.26
2023-05-25T19:58:11.505Z,20.20
2023-05-25T20:01:11.561Z,20.14
2023-05-25T20:04:11.521Z,20.10
2023-05-25T20:07:11.522Z,20.08
2023-05-25T20:10:12.550Z,20.05
2023-05-25T20:13:12.555Z,20.03
2023-05-25T20:16:15.611Z,20.01
2023-05-25T20:19:20.503Z,20.01
2023-05-25T20:22:23.539Z,20.00
2023-05-25T20:25:23.546Z,20.00
2023-05-25T20:28:23.559Z,20.01
2023-05-25T20:31:23.620Z,20.00
2023-05-25T20:34:23.616Z,19.98
2023-05-25T20:37:23.583Z,19.96
2023-05-25T20:40:23.642Z,19.92
2023-05-25T20:43:23.667Z,19.88
2023-05-25T20:46:23.638Z,19.81
2023-05-25T20:49:25.908Z,19.77
2023-05-25T20:52:27.625Z,19.72
2023-05-25T20:55:27.621Z,19.66
2023-05-25T20:58:28.886Z,19.60
2023-05-25T21:01:28.703Z,19.55
2023-05-25T21:04:30.450Z,19.47
2023-05-25T21:07:31.641Z,19.40
2023-05-25T21:10:34.628Z,19.34
2023-05-25T21:13:35.663Z,19.28
2023-05-25T21:16:35.758Z,19.21
2023-05-25T21:19:35.671Z,19.15
2023-05-25T21:22:35.680Z,19.10
2023-05-25T21:25:35.688Z,19.04
2023-05-25T21:28:36.679Z,18.98
2023-05-25T21:31:37.730Z,18.93
2023-05-25T21:34:37.697Z,18.86
2023-05-25T21:37:37.691Z,18.82
2023-05-25T21:40:37.692Z,18.78
2023-05-25T21:43:38.700Z,18.74
2023-05-25T21:46:38.926Z,18.68
2023-05-25T21:49:38.738Z,18.63
2023-05-25T21:52:44.752Z,18.59
2023-05-25T21:55:44.906Z,18.53
2023-05-25T21:58:44.742Z,18.46
2023-05-25T22:01:45.728Z,18.39
2023-05-25T22:04:45.765Z,18.35
2023-05-25T22:07:45.781Z,18.32
2023-05-25T22:10:45.773Z,18.28
2023-05-25T22:13:45.756Z,18.22
2023-05-25T22:16:45.915Z,18.19
2023-05-25T22:19:55.318Z,18.17
2023-05-25T22:23:06.811Z,18.16
2023-05-25T22:26:06.819Z,18.14
2023-05-25T22:29:06.792Z,18.12
2023-05-25T22:32:06.835Z,18.10
2023-05-25T22:35:06.860Z,18.09
2023-05-25T22:38:06.837Z,18.05
2023-05-25T22:41:06.828Z,18.03
2023-05-25T22:44:07.911Z,18.00
2023-05-25T22:47:07.912Z,17.87
2023-05-25T22:50:07.894Z,17.73
2023-05-25T22:53:07.917Z,17.61
2023-05-25T22:56:14.853Z,17.56
2023-05-25T22:59:14.865Z,17.52
2023-05-25T23:02:14.898Z,17.53
2023-05-25T23:05:15.862Z,17.55
2023-05-25T23:08:15.885Z,17.58
2023-05-25T23:11:15.867Z,17.62
2023-05-25T23:14:16.896Z,17.67
2023-05-25T23:17:16.904Z,17.68
2023-05-25T23:20:16.935Z,17.68
2023-05-25T23:23:16.919Z,17.71
2023-05-25T23:26:16.914Z,17.80
2023-05-25T23:29:16.905Z,17.86
2023-05-25T23:32:16.917Z,17.88
2023-05-25T23:35:17.933Z,17.90
2023-05-25T23:38:17.937Z,17.90
2023-05-25T23:41:17.928Z,17.88
2023-05-25T23:44:17.954Z,17.85
2023-05-25T23:47:17.945Z,17.83
2023-05-25T23:50:21.144Z,17.82
2023-05-25T23:53:20.969Z,17.80
2023-05-25T23:56:21.034Z,17.77
2023-05-25T23:59:20.964Z,17.74
